Time;durP1;ratioP1;P1;durP2;ratioP2;P2;SDS_P1;SDS_P2;PMS_P1;PMS_P2;Temp;Humidity;BMP_temperature;BMP_pressure;BME280_temperature;BME280_humidity;BME280_pressure;Samples;Min_cycle;Max_cycle;Signal;HPM_P1;HPM_P2
2021/11/25 00:01:31;;;;;;;0.10;0.10;;;5.50;99.90;;;;;;5038596;28;20551;-82
2021/11/25 00:03:58;;;;;;;0.10;0.10;;;5.50;99.90;;;;;;5054547;28;20044;-83
2021/11/25 00:06:25;;;;;;;0.10;0.10;;;5.50;99.90;;;;;;5038743;28;20079;-83
2021/11/25 00:08:52;;;;;;;0.10;0.10;;;5.50;99.90;;;;;;5070893;28;20041;-82
2021/11/25 00:11:19;;;;;;;0.10;0.10;;;5.40;99.90;;;;;;5022240;28;20094;-82
2021/11/25 00:13:47;;;;;;;0.10;0.10;;;5.50;99.90;;;;;;5054723;28;20473;-82
2021/11/25 00:16:14;;;;;;;0.10;0.10;;;5.50;99.90;;;;;;5038449;28;20106;-82
2021/11/25 00:18:40;;;;;;;0.10;0.10;;;5.40;99.90;;;;;;5054040;28;20041;-82
2021/11/25 00:21:09;;;;;;;0.10;0.10;;;5.50;99.90;;;;;;5022347;28;20076;-82
2021/11/25 00:23:37;;;;;;;0.10;0.10;;;5.50;99.90;;;;;;5054640;28;20048;-82
2021/11/25 00:26:04;;;;;;;0.10;0.10;;;5.50;99.90;;;;;;5021732;28;20059;-82
2021/11/25 00:28:32;;;;;;;0.10;0.10;;;5.50;99.90;;;;;;5038243;28;20127;-82
2021/11/25 00:31:00;;;;;;;0.15;0.15;;;5.50;99.90;;;;;;5022009;28;20047;-82
2021/11/25 00:33:28;;;;;;;0.10;0.10;;;5.40;99.90;;;;;;5070589;28;20128;-82
2021/11/25 00:35:54;;;;;;;0.03;0.03;;;5.50;99.90;;;;;;5070092;28;20406;-83
2021/11/25 00:38:21;;;;;;;0.10;0.10;;;5.50;99.90;;;;;;5053908;28;20037;-82
2021/11/25 00:40:48;;;;;;;0.63;0.63;;;5.50;99.90;;;;;;5069977;28;20037;-83
2021/11/25 00:43:15;;;;;;;0.10;0.10;;;5.50;99.90;;;;;;5054095;28;20082;-82
2021/11/25 00:45:42;;;;;;;0.10;0.10;;;5.50;99.90;;;;;;5037496;28;20099;-82
2021/11/25 00:48:08;;;;;;;0.10;0.10;;;5.50;99.90;;;;;;5069906;28;20508;-82
2021/11/25 00:50:36;;;;;;;0.10;0.10;;;5.50;99.90;;;;;;5053488;28;20061;-83
2021/11/25 00:53:02;;;;;;;0.10;0.10;;;5.50;99.90;;;;;;5053280;28;20418;-83
2021/11/25 00:55:29;;;;;;;0.15;0.15;;;5.50;99.90;;;;;;5053905;28;20093;-82
2021/11/25 00:57:56;;;;;;;0.10;0.10;;;5.40;99.90;;;;;;5037153;28;20124;-83
2021/11/25 01:00:23;;;;;;;0.10;0.10;;;5.50;99.90;;;;;;5021373;28;20123;-82
2021/11/25 01:02:50;;;;;;;0.10;0.10;;;5.40;99.90;;;;;;5053392;28;20041;-83
2021/11/25 01:05:17;;;;;;;0.10;0.10;;;5.50;99.90;;;;;;5053540;28;20040;-83
2021/11/25 01:07:45;;;;;;;0.10;0.10;;;5.50;99.90;;;;;;5053461;28;20132;-83
2021/11/25 01:10:16;;;;;;;0.10;0.10;;;5.40;99.90;;;;;;5053509;28;20131;-83
2021/11/25 01:12:44;;;;;;;0.20;0.20;;;5.50;99.90;;;;;;5069660;28;20485;-83
2021/11/25 01:15:12;;;;;;;0.10;0.10;;;5.40;99.90;;;;;;5052972;28;20500;-83
2021/11/25 01:17:40;;;;;;;0.10;0.10;;;5.50;99.90;;;;;;5053801;28;20037;-83
2021/11/25 01:20:14;;;;;;;0.10;0.10;;;5.40;99.90;;;;;;5069502;28;20041;-83
2021/11/25 01:22:42;;;;;;;0.10;0.10;;;5.40;99.90;;;;;;5069734;28;20152;-83
2021/11/25 01:25:09;;;;;;;0.10;0.10;;;5.50;99.90;;;;;;5052649;28;20033;-83
2021/11/25 01:27:36;;;;;;;0.10;0.10;;;5.50;99.90;;;;;;5047010;28;20092;-82
2021/11/25 01:30:04;;;;;;;0.10;0.10;;;5.40;99.90;;;;;;5021877;28;20072;-83
2021/11/25 01:32:31;;;;;;;0.22;0.20;;;5.50;99.90;;;;;;5033203;28;20100;-83
2021/11/25 01:34:58;;;;;;;0.10;0.10;;;5.50;99.90;;;;;;5033186;28;20042;-83
2021/11/25 01:37:27;;;;;;;0.05;0.05;;;5.50;99.90;;;;;;5049236;28;20549;-83
2021/11/25 01:39:56;;;;;;;0.10;0.10;;;5.50;99.90;;;;;;5017318;28;20048;-83
2021/11/25 01:42:23;;;;;;;0.10;0.10;;;5.40;99.90;;;;;;5033133;28;20053;-82
2021/11/25 01:44:50;;;;;;;0.10;0.10;;;5.40;99.90;;;;;;5017307;28;20830;-83
2021/11/25 01:47:17;;;;;;;0.10;0.10;;;5.50;99.90;;;;;;5033353;28;20038;-83
2021/11/25 01:49:44;;;;;;;0.10;0.10;;;5.40;99.90;;;;;;5033223;28;20053;-83
2021/11/25 01:52:10;;;;;;;0.10;0.10;;;5.40;99.90;;;;;;5000583;28;20491;-83
2021/11/25 01:54:37;;;;;;;0.10;0.10;;;5.50;99.90;;;;;;5016921;28;20037;-83
2021/11/25 01:57:06;;;;;;;0.10;0.10;;;5.50;99.90;;;;;;5000635;28;20033;-83
2021/11/25 01:59:36;;;;;;;0.10;0.10;;;5.40;99.90;;;;;;5033123;28;20033;-82
2021/11/25 02:02:07;;;;;;;0.10;0.10;;;5.40;99.90;;;;;;5033030;28;20041;-83
2021/11/25 02:04:34;;;;;;;0.10;0.10;;;5.40;99.90;;;;;;5017166;28;20084;-83
2021/11/25 02:07:01;;;;;;;0.10;0.10;;;5.40;99.90;;;;;;5032711;28;20107;-83
2021/11/25 02:09:28;;;;;;;0.00;0.00;;;5.40;99.90;;;;;;5033348;28;20056;-83
2021/11/25 02:11:55;;;;;;;0.10;0.10;;;5.40;99.90;;;;;;5000623;28;20144;-83
2021/11/25 02:14:22;;;;;;;0.10;0.10;;;5.40;99.90;;;;;;5002677;28;20033;-83
2021/11/25 02:16:49;;;;;;;0.10;0.10;;;5.30;99.90;;;;;;5020878;28;20041;-83
2021/11/25 02:19:17;;;;;;;0.10;0.10;;;5.30;99.90;;;;;;5004673;28;20045;-83
2021/11/25 02:21:44;;;;;;;0.10;0.10;;;5.30;99.90;;;;;;5020691;28;20056;-83
2021/11/25 02:24:10;;;;;;;0.10;0.10;;;5.30;99.90;;;;;;5036879;28;20041;-83
2021/11/25 02:26:37;;;;;;;0.10;0.10;;;5.30;99.90;;;;;;5020502;28;20108;-83
2021/11/25 02:29:04;;;;;;;0.10;0.10;;;5.30;99.90;;;;;;5004538;28;20049;-83
2021/11/25 02:31:31;;;;;;;0.10;0.10;;;5.30;99.90;;;;;;5036869;28;20450;-83
2021/11/25 02:33:57;;;;;;;0.10;0.10;;;5.40;99.90;;;;;;5004318;28;20498;-83
2021/11/25 02:36:24;;;;;;;0.10;0.10;;;5.40;99.90;;;;;;5004128;28;20037;-83
2021/11/25 02:38:52;;;;;;;0.10;0.10;;;5.40;99.90;;;;;;5020897;28;20049;-83
2021/11/25 02:41:19;;;;;;;0.10;0.10;;;5.40;99.90;;;;;;5052880;28;20041;-83
2021/11/25 02:43:46;;;;;;;0.10;0.10;;;5.40;99.90;;;;;;5020329;28;20535;-83
2021/11/25 02:46:16;;;;;;;0.10;0.10;;;5.40;99.90;;;;;;5003740;28;20044;-83
2021/11/25 02:48:48;;;;;;;0.10;0.10;;;5.40;99.90;;;;;;5020766;28;20056;-83
2021/11/25 02:51:19;;;;;;;0.10;0.10;;;5.40;99.90;;;;;;5036009;28;20049;-83
2021/11/25 02:53:47;;;;;;;0.10;0.10;;;5.40;99.90;;;;;;5036638;28;20049;-83
2021/11/25 02:56:24;;;;;;;0.10;0.10;;;5.40;99.90;;;;;;5052272;28;20042;-83
2021/11/25 02:58:52;;;;;;;0.10;0.10;;;5.40;99.90;;;;;;5052787;28;20102;-83
2021/11/25 03:01:21;;;;;;;0.10;0.10;;;5.40;99.90;;;;;;5019780;28;20071;-83
2021/11/25 03:03:48;;;;;;;0.10;0.10;;;5.40;99.90;;;;;;5052492;28;20410;-83
2021/11/25 03:06:16;;;;;;;0.10;0.10;;;5.30;99.90;;;;;;5019552;28;20076;-83
2021/11/25 03:08:43;;;;;;;0.10;0.10;;;5.40;99.90;;;;;;5036003;28;20045;-83
2021/11/25 03:11:14;;;;;;;0.10;0.10;;;5.40;99.90;;;;;;5003733;28;20080;-83
2021/11/25 03:13:44;;;;;;;0.10;0.10;;;5.40;99.90;;;;;;5035841;28;20048;-83
2021/11/25 03:16:13;;;;;;;0.10;0.10;;;5.40;99.90;;;;;;5052250;28;20085;-82
2021/11/25 03:18:40;;;;;;;0.10;0.10;;;5.30;99.90;;;;;;5036088;28;20132;-82
2021/11/25 03:21:09;;;;;;;0.10;0.10;;;5.30;99.90;;;;;;5035759;28;20137;-83
2021/11/25 03:23:38;;;;;;;0.10;0.10;;;5.30;99.90;;;;;;5019896;28;20132;-82
2021/11/25 03:26:06;;;;;;;0.10;0.10;;;5.30;99.90;;;;;;5051438;28;20179;-83
2021/11/25 03:28:36;;;;;;;0.10;0.10;;;5.30;99.90;;;;;;5051842;28;20064;-83
2021/11/25 03:31:04;;;;;;;0.10;0.10;;;5.50;99.90;;;;;;5035186;28;20045;-83
2021/11/25 03:33:32;;;;;;;0.20;0.20;;;5.30;99.90;;;;;;5035842;28;20037;-83
2021/11/25 03:36:01;;;;;;;0.50;0.50;;;5.30;99.90;;;;;;5035439;28;20045;-83
2021/11/25 03:38:29;;;;;;;0.10;0.10;;;5.30;99.90;;;;;;5034940;28;20037;-82
2021/11/25 03:40:56;;;;;;;0.10;0.10;;;5.30;99.90;;;;;;5019446;28;20069;-83
2021/11/25 03:43:23;;;;;;;0.10;0.10;;;5.20;99.90;;;;;;5019029;28;20573;-83
2021/11/25 03:45:50;;;;;;;0.10;0.10;;;5.20;99.90;;;;;;5035285;28;20129;-83
2021/11/25 03:48:17;;;;;;;0.15;0.15;;;5.20;99.90;;;;;;5019217;28;20033;-83
2021/11/25 03:50:44;;;;;;;0.10;0.10;;;5.60;99.90;;;;;;5015186;28;20554;-82
2021/11/25 03:53:11;;;;;;;0.20;0.20;;;5.30;99.90;;;;;;5015298;28;20045;-83
2021/11/25 03:55:38;;;;;;;0.10;0.10;;;5.30;99.90;;;;;;5015761;28;20099;-83
2021/11/25 03:58:05;;;;;;;0.10;0.10;;;5.20;99.90;;;;;;5048382;28;20050;-82
2021/11/25 04:00:32;;;;;;;0.13;0.13;;;5.30;99.90;;;;;;5047929;28;20465;-83
2021/11/25 04:03:01;;;;;;;0.10;0.10;;;5.30;99.90;;;;;;5015845;28;20498;-83
2021/11/25 04:05:29;;;;;;;0.10;0.10;;;5.20;99.90;;;;;;5047725;28;20049;-83
2021/11/25 04:07:56;;;;;;;0.15;0.15;;;5.30;99.90;;;;;;4999517;28;20068;-83
2021/11/25 04:10:23;;;;;;;0.10;0.10;;;5.20;99.90;;;;;;5015004;28;20038;-83
2021/11/25 04:12:50;;;;;;;0.10;0.10;;;5.20;99.90;;;;;;5015230;28;20038;-82
2021/11/25 04:15:18;;;;;;;0.10;0.10;;;5.20;99.90;;;;;;4998827;28;20046;-82
2021/11/25 04:17:45;;;;;;;0.10;0.10;;;5.20;99.90;;;;;;5015589;28;20069;-83
2021/11/25 04:20:13;;;;;;;0.10;0.10;;;5.20;99.90;;;;;;5047524;28;20154;-82
2021/11/25 04:22:40;;;;;;;0.17;0.17;;;5.20;99.90;;;;;;5015201;28;20046;-83
2021/11/25 04:25:08;;;;;;;0.10;0.10;;;5.20;99.90;;;;;;5047318;28;20055;-83
2021/11/25 04:27:35;;;;;;;0.10;0.10;;;5.30;99.90;;;;;;5047271;28;20099;-83
2021/11/25 04:30:10;;;;;;;0.20;0.20;;;5.20;99.90;;;;;;5014746;28;20132;-83
2021/11/25 04:35:30;;;;;;;0.10;0.10;;;5.30;99.90;;;;;;5033336;28;20048;-83
2021/11/25 04:38:12;;;;;;;0.30;0.30;;;5.20;99.90;;;;;;5031731;28;20046;-83
2021/11/25 04:41:04;;;;;;;0.10;0.10;;;5.20;99.90;;;;;;5049096;28;20038;-82
2021/11/25 04:43:31;;;;;;;0.10;0.10;;;5.30;99.90;;;;;;5030195;28;20038;-83
2021/11/25 04:45:58;;;;;;;0.10;0.10;;;5.20;99.90;;;;;;5046943;28;20045;-83
2021/11/25 04:48:26;;;;;;;0.10;0.10;;;5.20;99.90;;;;;;5046771;28;20038;-82
2021/11/25 04:50:54;;;;;;;0.10;0.10;;;5.10;99.90;;;;;;5047025;28;20046;-83
2021/11/25 04:53:22;;;;;;;0.43;0.43;;;5.10;99.90;;;;;;5014348;28;20049;-83
2021/11/25 04:55:49;;;;;;;0.10;0.10;;;5.10;99.90;;;;;;5047194;28;20042;-82
2021/11/25 04:58:15;;;;;;;0.10;0.10;;;5.10;99.90;;;;;;5046560;28;20380;-82
2021/11/25 05:00:44;;;;;;;0.13;0.13;;;5.90;99.90;;;;;;5046918;28;20045;-83
2021/11/25 05:03:11;;;;;;;0.10;0.10;;;5.00;99.90;;;;;;5030555;28;20096;-83
2021/11/25 05:05:39;;;;;;;0.10;0.10;;;5.00;99.90;;;;;;5029833;28;20409;-83
2021/11/25 05:08:07;;;;;;;0.10;0.10;;;5.00;99.90;;;;;;4998438;28;20056;-83
2021/11/25 05:10:34;;;;;;;0.10;0.10;;;5.00;99.90;;;;;;5046487;28;20042;-83
2021/11/25 05:13:01;;;;;;;0.10;0.10;;;5.00;99.90;;;;;;5014209;28;20038;-83
2021/11/25 05:15:28;;;;;;;0.47;0.30;;;5.00;99.90;;;;;;5030295;28;20525;-83
2021/11/25 05:17:55;;;;;;;0.20;0.20;;;4.90;99.90;;;;;;5030273;28;20033;-83
2021/11/25 05:20:22;;;;;;;0.10;0.10;;;5.00;99.90;;;;;;5046294;28;20124;-83
2021/11/25 05:22:49;;;;;;;0.10;0.10;;;4.90;99.90;;;;;;4997937;28;20499;-83
2021/11/25 05:25:16;;;;;;;0.10;0.10;;;4.90;99.90;;;;;;5046563;28;20042;-83
2021/11/25 05:27:44;;;;;;;0.17;0.17;;;4.90;99.90;;;;;;5030071;28;20507;-83
2021/11/25 05:30:13;;;;;;;0.10;0.10;;;4.90;99.90;;;;;;5046234;28;20491;-83
2021/11/25 05:32:40;;;;;;;0.10;0.10;;;4.90;99.90;;;;;;5045749;28;20127;-83
2021/11/25 05:35:07;;;;;;;0.10;0.10;;;4.80;99.90;;;;;;5046301;28;20045;-83
2021/11/25 05:37:34;;;;;;;0.10;0.10;;;4.80;99.90;;;;;;5029925;28;20042;-83
2021/11/25 05:40:03;;;;;;;0.10;0.10;;;4.70;99.90;;;;;;5014187;28;20038;-83
2021/11/25 05:42:31;;;;;;;0.17;0.17;;;4.70;99.90;;;;;;5030009;28;20128;-83
2021/11/25 05:44:59;;;;;;;0.20;0.20;;;4.80;99.90;;;;;;5030279;28;20050;-83
2021/11/25 05:47:26;;;;;;;0.10;0.10;;;4.70;99.90;;;;;;5045859;28;20069;-83
2021/11/25 05:49:52;;;;;;;0.10;0.10;;;4.70;99.90;;;;;;5029545;28;20042;-83
2021/11/25 05:52:20;;;;;;;0.10;0.10;;;5.30;99.90;;;;;;5013893;28;20410;-83
2021/11/25 05:54:47;;;;;;;0.10;0.10;;;4.70;99.90;;;;;;5030631;28;20042;-83
2021/11/25 05:57:14;;;;;;;0.10;0.10;;;4.70;99.90;;;;;;5030328;28;20502;-83
2021/11/25 05:59:40;;;;;;;0.10;0.10;;;4.80;99.90;;;;;;4997571;28;20038;-83
2021/11/25 06:02:08;;;;;;;0.10;0.10;;;4.80;99.90;;;;;;5029544;28;20044;-84
2021/11/25 06:04:35;;;;;;;0.10;0.10;;;4.80;99.90;;;;;;5046164;28;20084;-83
2021/11/25 06:07:01;;;;;;;0.10;0.10;;;5.20;99.90;;;;;;5013843;28;20077;-83
2021/11/25 06:09:28;;;;;;;0.20;0.20;;;4.80;99.90;;;;;;5030079;28;20061;-83
2021/11/25 06:11:55;;;;;;;0.10;0.10;;;4.80;99.90;;;;;;4998075;28;20046;-83
2021/11/25 06:14:21;;;;;;;0.10;0.10;;;4.80;99.90;;;;;;4997960;28;20040;-83
2021/11/25 06:16:48;;;;;;;0.10;0.10;;;4.80;99.90;;;;;;5029932;28;20038;-83
2021/11/25 06:19:15;;;;;;;0.30;0.30;;;4.90;99.90;;;;;;5013844;28;20068;-83
2021/11/25 06:21:42;;;;;;;0.10;0.10;;;4.90;99.90;;;;;;5029618;28;20049;-83
2021/11/25 06:24:08;;;;;;;0.50;0.50;;;5.50;99.90;;;;;;5014377;28;20073;-83
2021/11/25 06:26:39;;;;;;;0.10;0.10;;;5.20;99.90;;;;;;5033250;28;20041;-83
2021/11/25 06:29:06;;;;;;;0.10;0.10;;;4.90;99.90;;;;;;4999909;28;20049;-83
2021/11/25 06:31:33;;;;;;;0.10;0.10;;;5.20;99.90;;;;;;4997839;28;20069;-83
2021/11/25 06:34:00;;;;;;;0.20;0.20;;;5.60;99.90;;;;;;5014274;28;20041;-83
2021/11/25 06:36:27;;;;;;;0.10;0.10;;;4.90;99.90;;;;;;5029994;28;20069;-83
2021/11/25 06:38:53;;;;;;;0.15;0.15;;;4.90;99.90;;;;;;4998822;28;20176;-83
2021/11/25 06:41:20;;;;;;;0.52;0.52;;;4.90;99.90;;;;;;5014971;28;20045;-83
2021/11/25 06:43:47;;;;;;;0.95;0.85;;;4.90;99.90;;;;;;5037072;28;20129;-83
2021/11/25 06:46:13;;;;;;;0.10;0.10;;;4.90;99.90;;;;;;5046316;28;20033;-83
2021/11/25 06:48:40;;;;;;;0.20;0.20;;;4.90;99.90;;;;;;5013536;28;20404;-83
2021/11/25 06:51:07;;;;;;;0.20;0.20;;;4.90;99.90;;;;;;4997272;28;20066;-83
2021/11/25 06:53:34;;;;;;;0.10;0.10;;;4.90;99.90;;;;;;5013549;28;20042;-84
2021/11/25 06:56:00;;;;;;;1.55;1.05;;;5.10;99.90;;;;;;5046311;28;20048;-83
2021/11/25 06:58:27;;;;;;;0.10;0.10;;;4.80;99.90;;;;;;4997617;28;20040;-83
2021/11/25 07:00:54;;;;;;;0.10;0.10;;;5.10;99.90;;;;;;4999876;28;20041;-83
2021/11/25 07:03:21;;;;;;;0.40;0.20;;;4.90;99.90;;;;;;5001255;28;20105;-83
2021/11/25 07:05:48;;;;;;;0.10;0.10;;;4.90;99.90;;;;;;5000387;28;20478;-84
2021/11/25 07:08:14;;;;;;;0.10;0.10;;;4.80;99.90;;;;;;5049049;28;20037;-83
2021/11/25 07:10:41;;;;;;;0.20;0.20;;;4.90;99.90;;;;;;5016194;28;20809;-84
2021/11/25 07:13:08;;;;;;;0.10;0.10;;;4.90;99.90;;;;;;5000522;28;20042;-84
2021/11/25 07:15:35;;;;;;;0.10;0.10;;;4.90;99.90;;;;;;5016360;28;20071;-83
2021/11/25 07:18:02;;;;;;;0.10;0.10;;;5.00;99.90;;;;;;5048704;28;20084;-83
2021/11/25 07:20:28;;;;;;;0.10;0.10;;;4.90;99.90;;;;;;5032623;28;20045;-84
2021/11/25 07:22:55;;;;;;;0.10;0.10;;;4.90;99.90;;;;;;5032276;28;20095;-84
2021/11/25 07:25:24;;;;;;;0.10;0.10;;;5.40;99.90;;;;;;5000181;28;20046;-84
2021/11/25 07:27:52;;;;;;;0.10;0.10;;;5.00;99.90;;;;;;5048644;28;20140;-84
2021/11/25 07:30:19;;;;;;;0.10;0.10;;;4.90;99.90;;;;;;5049333;28;20099;-84
2021/11/25 07:32:46;;;;;;;0.10;0.10;;;4.90;99.90;;;;;;5028315;28;20120;-84
2021/11/25 07:35:14;;;;;;;0.10;0.10;;;5.00;99.90;;;;;;5044526;28;20379;-84
2021/11/25 07:37:41;;;;;;;0.52;0.52;;;5.00;99.90;;;;;;5015759;28;20034;-82
2021/11/25 07:40:09;;;;;;;0.10;0.10;;;5.10;99.90;;;;;;5009774;28;20048;-82
2021/11/25 07:42:36;;;;;;;0.57;0.32;;;5.00;99.90;;;;;;5068304;28;20045;-83
2021/11/25 07:45:04;;;;;;;0.20;0.20;;;4.90;99.90;;;;;;5032463;28;20065;-83
2021/11/25 07:47:32;;;;;;;2.45;0.47;;;5.00;99.90;;;;;;5032743;28;20037;-83
2021/11/25 07:50:09;;;;;;;0.10;0.10;;;5.00;99.90;;;;;;5003590;28;20044;-83
2021/11/25 07:52:36;;;;;;;0.10;0.10;;;5.00;99.90;;;;;;5068117;28;20060;-83
2021/11/25 07:55:04;;;;;;;0.10;0.10;;;5.00;99.90;;;;;;5019419;28;20068;-83
2021/11/25 07:57:31;;;;;;;0.30;0.30;;;5.00;99.90;;;;;;5051774;28;20043;-83
2021/11/25 07:59:58;;;;;;;0.10;0.10;;;5.00;99.90;;;;;;5051588;28;20042;-83
2021/11/25 08:02:24;;;;;;;0.10;0.10;;;5.00;99.90;;;;;;5035563;28;20103;-82
2021/11/25 08:04:52;;;;;;;0.10;0.10;;;5.10;99.90;;;;;;5051708;28;20037;-82
2021/11/25 08:07:19;;;;;;;0.10;0.10;;;5.20;99.90;;;;;;5052091;28;20128;-83
2021/11/25 08:09:46;;;;;;;0.10;0.10;;;5.10;99.90;;;;;;5033050;28;20760;-83
2021/11/25 08:12:13;;;;;;;0.10;0.10;;;5.10;99.90;;;;;;5030738;28;20078;-84
2021/11/25 08:14:40;;;;;;;0.20;0.20;;;5.10;99.90;;;;;;5031484;28;20101;-83
2021/11/25 08:17:09;;;;;;;0.10;0.10;;;5.20;99.90;;;;;;5029856;28;20444;-83
2021/11/25 08:19:37;;;;;;;0.10;0.10;;;5.20;99.90;;;;;;5051936;28;20045;-83
2021/11/25 08:22:04;;;;;;;0.10;0.10;;;5.20;99.90;;;;;;5018768;28;20056;-84
2021/11/25 08:24:31;;;;;;;0.20;0.20;;;5.20;99.90;;;;;;5031302;28;20045;-84
2021/11/25 08:26:58;;;;;;;0.10;0.10;;;5.20;99.90;;;;;;5020467;28;20128;-83
2021/11/25 08:29:25;;;;;;;0.60;0.35;;;5.70;99.90;;;;;;5001923;28;20093;-84
2021/11/25 08:31:52;;;;;;;0.10;0.10;;;5.20;99.90;;;;;;5041095;28;20128;-84
2021/11/25 08:34:19;;;;;;;0.10;0.10;;;5.10;99.90;;;;;;5045772;28;20033;-83
2021/11/25 08:36:46;;;;;;;0.28;0.25;;;5.20;99.90;;;;;;5029253;28;20508;-84
2021/11/25 08:39:12;;;;;;;1.10;0.45;;;5.20;99.90;;;;;;4999245;28;20042;-83
2021/11/25 08:41:39;;;;;;;0.20;0.20;;;5.10;99.90;;;;;;4999240;28;20044;-84
2021/11/25 08:44:06;;;;;;;0.10;0.10;;;5.50;99.90;;;;;;5001170;28;20038;-84
2021/11/25 08:46:32;;;;;;;0.35;0.35;;;5.10;99.90;;;;;;5062459;28;20124;-84
2021/11/25 08:49:00;;;;;;;0.10;0.10;;;5.10;99.90;;;;;;5018449;28;20045;-84
2021/11/25 08:51:28;;;;;;;0.10;0.10;;;5.10;99.90;;;;;;5032787;28;20057;-84
2021/11/25 08:53:59;;;;;;;0.55;0.52;;;5.10;99.90;;;;;;5050239;28;20077;-85
2021/11/25 08:56:30;;;;;;;0.10;0.10;;;5.70;99.90;;;;;;5067584;28;20736;-84
2021/11/25 08:58:57;;;;;;;0.10;0.10;;;5.10;99.90;;;;;;5066211;28;20087;-83
2021/11/25 09:01:24;;;;;;;0.10;0.10;;;5.20;99.90;;;;;;5066866;28;20518;-84
2021/11/25 09:03:52;;;;;;;0.10;0.10;;;5.30;99.90;;;;;;5067114;28;20087;-85
2021/11/25 09:06:19;;;;;;;0.20;0.20;;;5.30;99.90;;;;;;5050617;28;20045;-83
2021/11/25 09:08:46;;;;;;;0.10;0.10;;;5.30;99.90;;;;;;5050069;28;20131;-83
2021/11/25 09:11:15;;;;;;;0.10;0.10;;;5.30;99.90;;;;;;5018227;28;20132;-83
2021/11/25 09:13:42;;;;;;;0.10;0.10;;;5.40;99.90;;;;;;5050160;28;20041;-83
2021/11/25 09:16:09;;;;;;;0.10;0.10;;;5.40;99.90;;;;;;5050108;28;20087;-84
2021/11/25 09:18:35;;;;;;;0.10;0.10;;;5.50;99.90;;;;;;5034552;28;20548;-84
2021/11/25 09:21:02;;;;;;;0.10;0.10;;;5.40;99.90;;;;;;5006050;28;20061;-84
2021/11/25 09:23:29;;;;;;;0.28;0.28;;;5.60;99.90;;;;;;5045413;28;20049;-85
2021/11/25 09:25:56;;;;;;;0.10;0.10;;;5.50;99.90;;;;;;5038580;28;20414;-84
2021/11/25 09:28:27;;;;;;;0.10;0.10;;;5.50;99.90;;;;;;5020246;28;20529;-83
2021/11/25 09:30:55;;;;;;;0.10;0.10;;;5.60;99.90;;;;;;5065867;28;20199;-84
2021/11/25 09:33:22;;;;;;;0.10;0.10;;;5.90;99.90;;;;;;5050310;28;20502;-85
2021/11/25 09:35:49;;;;;;;0.10;0.10;;;5.70;99.90;;;;;;5048709;28;20038;-84
2021/11/25 09:38:17;;;;;;;0.10;0.10;;;6.10;99.90;;;;;;5064928;28;20042;-83
2021/11/25 09:40:46;;;;;;;0.10;0.10;;;5.70;99.90;;;;;;5044142;28;20031;-84
2021/11/25 09:43:20;;;;;;;0.10;0.10;;;5.70;99.90;;;;;;5035292;28;20068;-85
2021/11/25 09:45:50;;;;;;;0.20;0.20;;;5.70;99.90;;;;;;5046025;28;20129;-83
2021/11/25 09:48:19;;;;;;;0.10;0.10;;;5.70;99.90;;;;;;5030341;28;20425;-83
2021/11/25 09:50:49;;;;;;;0.10;0.10;;;5.70;99.90;;;;;;5041587;28;20520;-83
2021/11/25 09:53:18;;;;;;;0.20;0.20;;;5.70;99.90;;;;;;5047714;28;20517;-83
2021/11/25 09:55:48;;;;;;;0.75;0.55;;;5.80;99.90;;;;;;5032986;28;20033;-84
2021/11/25 09:58:21;;;;;;;0.10;0.10;;;5.80;99.90;;;;;;5036844;28;20134;-84
2021/11/25 10:00:57;;;;;;;0.10;0.10;;;5.90;99.90;;;;;;5053545;28;20048;-84
2021/11/25 10:03:24;;;;;;;0.10;0.10;;;6.00;99.90;;;;;;5085996;28;20041;-82
2021/11/25 10:05:54;;;;;;;0.10;0.10;;;6.00;99.90;;;;;;5052590;28;20041;-83
2021/11/25 10:08:35;;;;;;;0.10;0.10;;;6.10;99.90;;;;;;5068114;28;20041;-85
2021/11/25 10:11:03;;;;;;;0.10;0.10;;;6.10;99.90;;;;;;5069245;28;20136;-84
2021/11/25 10:13:41;;;;;;;0.10;0.10;;;6.10;99.90;;;;;;5069515;28;20053;-83
2021/11/25 10:16:12;;;;;;;0.10;0.10;;;6.20;99.90;;;;;;5068887;28;20133;-85
2021/11/25 10:18:39;;;;;;;0.10;0.10;;;6.20;99.90;;;;;;5031332;28;20378;-84
2021/11/25 10:21:09;;;;;;;0.10;0.10;;;6.20;99.90;;;;;;5050992;28;20041;-84
2021/11/25 10:23:37;;;;;;;0.30;0.30;;;6.30;99.90;;;;;;5061410;28;20040;-84
2021/11/25 10:26:08;;;;;;;0.10;0.10;;;6.30;99.90;;;;;;5052501;28;20494;-83
2021/11/25 10:28:39;;;;;;;0.57;0.57;;;6.30;99.90;;;;;;5052259;28;20037;-84
2021/11/25 10:31:19;;;;;;;0.10;0.10;;;6.40;99.90;;;;;;5067968;28;20040;-84
2021/11/25 10:33:55;;;;;;;0.20;0.20;;;6.40;99.90;;;;;;5053247;28;20098;-84
2021/11/25 10:41:56;;;;;;;6.32;0.40;;;6.40;99.90;;;;;;5089615;28;20103;-83
2021/11/25 10:44:27;;;;;;;0.10;0.10;;;6.40;99.90;;;;;;5055028;28;20037;-85
2021/11/25 10:46:57;;;;;;;0.00;0.00;;;6.40;99.90;;;;;;5075936;28;20044;-84
2021/11/25 10:49:48;;;;;;;0.10;0.10;;;6.50;99.90;;;;;;5072740;28;20448;-84
2021/11/25 10:52:17;;;;;;;0.10;0.10;;;6.50;99.90;;;;;;5054153;28;20060;-83
2021/11/25 10:54:51;;;;;;;0.20;0.20;;;6.60;99.90;;;;;;5051373;28;20037;-83
2021/11/25 10:57:20;;;;;;;0.10;0.10;;;6.60;99.90;;;;;;5065013;28;20119;-83
2021/11/25 10:59:50;;;;;;;0.10;0.10;;;6.70;99.90;;;;;;5068434;28;20041;-83
2021/11/25 11:02:23;;;;;;;0.10;0.10;;;6.80;99.90;;;;;;5069572;28;20124;-83
2021/11/25 11:04:51;;;;;;;0.10;0.10;;;6.80;99.90;;;;;;5069185;28;20041;-84
2021/11/25 11:07:24;;;;;;;0.10;0.10;;;6.90;99.90;;;;;;5069165;28;20045;-85
2021/11/25 11:09:51;;;;;;;0.20;0.10;;;7.10;99.90;;;;;;5068876;28;20525;-84
2021/11/25 11:12:36;;;;;;;0.10;0.10;;;7.00;99.90;;;;;;5035574;28;20045;-85
2021/11/25 11:20:27;;;;;;;0.10;0.10;;;7.00;99.90;;;;;;5049593;28;20046;-84
2021/11/25 11:22:58;;;;;;;0.10;0.10;;;7.00;99.90;;;;;;5052455;28;20603;-85
2021/11/25 11:25:26;;;;;;;0.10;0.10;;;7.00;99.90;;;;;;5068309;28;20072;-85
2021/11/25 11:27:56;;;;;;;0.00;0.00;;;7.00;99.90;;;;;;5051619;28;20048;-84
2021/11/25 11:30:24;;;;;;;0.10;0.10;;;7.00;99.90;;;;;;5052340;28;20042;-85
2021/11/25 11:32:51;;;;;;;0.25;0.15;;;7.10;99.90;;;;;;5068072;28;20695;-84
2021/11/25 11:35:22;;;;;;;0.10;0.10;;;7.10;99.90;;;;;;5068776;28;20041;-83
2021/11/25 11:37:53;;;;;;;0.20;0.20;;;7.10;99.90;;;;;;5032843;28;20046;-83
2021/11/25 11:40:26;;;;;;;0.10;0.10;;;7.10;99.90;;;;;;5060255;28;20034;-84
2021/11/25 11:42:56;;;;;;;0.05;0.05;;;7.20;99.90;;;;;;5060922;28;20124;-84
2021/11/25 11:45:24;;;;;;;0.10;0.10;;;7.20;99.90;;;;;;5033261;28;20080;-85
2021/11/25 11:47:57;;;;;;;0.10;0.10;;;7.30;99.90;;;;;;5067122;28;20041;-85
2021/11/25 11:50:48;;;;;;;0.20;0.20;;;7.30;99.90;;;;;;5053508;28;20834;-84
2021/11/25 11:53:18;;;;;;;0.10;0.10;;;7.30;99.90;;;;;;5043504;28;20061;-84
2021/11/25 11:55:57;;;;;;;0.00;0.00;;;7.40;99.90;;;;;;5036278;28;20038;-84
2021/11/25 11:58:46;;;;;;;0.05;0.05;;;7.40;99.90;;;;;;5062652;28;20037;-85
2021/11/25 12:01:16;;;;;;;0.10;0.10;;;7.40;99.90;;;;;;5041734;28;20041;-86
2021/11/25 12:04:05;;;;;;;0.10;0.10;;;7.40;99.90;;;;;;5051919;28;20033;-85
2021/11/25 12:06:37;;;;;;;0.03;0.03;;;7.40;99.90;;;;;;5036539;28;20042;-84
2021/11/25 12:09:28;;;;;;;0.03;0.03;;;7.50;99.90;;;;;;5042546;28;20401;-84
2021/11/25 12:12:10;;;;;;;0.10;0.10;;;7.50;99.90;;;;;;5032869;28;20050;-85
2021/11/25 12:14:46;;;;;;;0.10;0.10;;;7.40;99.90;;;;;;5067381;28;20117;-85
2021/11/25 12:17:23;;;;;;;0.00;0.00;;;7.40;99.90;;;;;;5035281;28;20044;-85
2021/11/25 12:19:50;;;;;;;0.00;0.00;;;7.30;99.90;;;;;;5058372;28;20144;-85
2021/11/25 12:22:19;;;;;;;0.00;0.00;;;7.30;99.90;;;;;;5006962;28;20053;-84
2021/11/25 12:25:07;;;;;;;0.10;0.10;;;7.20;99.90;;;;;;5063812;28;20559;-85
2021/11/25 12:27:35;;;;;;;0.10;0.10;;;7.20;99.90;;;;;;5043685;28;20046;-84
2021/11/25 12:30:13;;;;;;;0.10;0.10;;;7.20;99.90;;;;;;5029977;28;20128;-84
2021/11/25 12:32:49;;;;;;;8.15;0.45;;;7.30;99.90;;;;;;5057433;28;20053;-84
2021/11/25 12:35:18;;;;;;;0.00;0.00;;;7.40;99.90;;;;;;5046653;28;20045;-84
2021/11/25 12:37:48;;;;;;;0.10;0.10;;;7.50;99.90;;;;;;5047666;28;20045;-84
2021/11/25 12:40:17;;;;;;;0.00;0.00;;;7.50;99.90;;;;;;5050143;28;20087;-84
2021/11/25 12:42:58;;;;;;;0.10;0.10;;;7.60;99.90;;;;;;5051079;28;20047;-85
2021/11/25 12:45:36;;;;;;;0.00;0.00;;;7.60;99.90;;;;;;5053950;28;20096;-85
2021/11/25 12:48:05;;;;;;;0.10;0.10;;;7.70;99.90;;;;;;5039211;28;20183;-84
2021/11/25 12:50:35;;;;;;;0.10;0.10;;;7.70;99.90;;;;;;5048182;28;20053;-85
2021/11/25 12:53:36;;;;;;;0.10;0.10;;;7.70;99.90;;;;;;5034048;28;20045;-84
2021/11/25 12:56:07;;;;;;;0.00;0.00;;;7.70;99.90;;;;;;5033146;28;20045;-84
2021/11/25 12:58:36;;;;;;;0.00;0.00;;;7.60;99.90;;;;;;5048765;28;20041;-84
2021/11/25 13:01:05;;;;;;;0.00;0.00;;;7.50;99.90;;;;;;5065183;28;20080;-85
2021/11/25 13:03:33;;;;;;;0.10;0.10;;;7.50;99.90;;;;;;5062536;28;20041;-84
2021/11/25 13:06:00;;;;;;;0.10;0.10;;;7.40;99.90;;;;;;5070624;28;20119;-84
2021/11/25 13:08:37;;;;;;;0.10;0.10;;;7.40;99.90;;;;;;5055846;28;20033;-84
2021/11/25 13:11:13;;;;;;;0.10;0.10;;;7.40;99.90;;;;;;5086562;28;20041;-83
2021/11/25 13:13:40;;;;;;;0.10;0.10;;;7.40;99.90;;;;;;5058682;28;20045;-84
2021/11/25 13:16:10;;;;;;;0.10;0.10;;;7.30;99.90;;;;;;5041942;28;20520;-83
2021/11/25 13:18:51;;;;;;;0.10;0.10;;;7.30;99.90;;;;;;5051503;28;20045;-85
2021/11/25 13:21:21;;;;;;;0.00;0.00;;;7.30;99.90;;;;;;5052014;28;20041;-83